Terminal Aerodrome Forecast
Issued by NWS

Home | Current Version | Previous Version | Text Only | Print | Product List | Glossary On
Versions: 1 2 3 4 5 6 7 8 9 10 11 12 13 14 15
000
FTPA31 PHFO 211120
TAFHTO
TAF
PHTO 211120Z 2112/2212 24006KT P6SM VCSH SCT025 BKN040
      TEMPO 2112/2116 VRB06G12KT 5SM SHRA SCT015 BKN025 BKN035
     FM212000 03009KT P6SM VCSH SCT025 BKN045
     FM220600 24005KT P6SM VCSH SCT025 BKN040=

USA.gov is the U.S. government's official web portal to all federal, state and local government web resources and services.